createdAt,value
2023-02-06T00:01:24.789Z,-2.00
2023-02-06T00:03:51.819Z,-2.00
2023-02-06T00:06:19.142Z,-2.00
2023-02-06T00:08:46.619Z,-2.00
2023-02-06T00:11:16.864Z,-1.90
2023-02-06T00:13:45.261Z,-1.90
2023-02-06T00:16:50.864Z,-2.00
2023-02-06T00:19:17.881Z,-2.00
2023-02-06T00:21:47.416Z,-2.00
2023-02-06T00:24:14.666Z,-2.00
2023-02-06T00:26:41.662Z,-2.00
2023-02-06T00:29:08.794Z,-2.00
2023-02-06T00:31:35.887Z,-1.90
2023-02-06T00:34:03.950Z,-2.00
2023-02-06T00:36:31.201Z,-2.00
2023-02-06T00:38:58.499Z,-1.90
2023-02-06T00:41:25.497Z,-2.00
2023-02-06T00:43:52.596Z,-2.00
2023-02-06T00:46:20.628Z,-2.00
2023-02-06T00:48:47.620Z,-2.00
2023-02-06T00:51:14.610Z,-2.10
2023-02-06T00:53:41.756Z,-2.10
2023-02-06T00:56:08.741Z,-2.10
2023-02-06T00:58:35.809Z,-2.10
2023-02-06T01:01:02.960Z,-2.10
2023-02-06T01:03:30.114Z,-2.10
2023-02-06T01:05:57.190Z,-2.10
2023-02-06T01:08:24.134Z,-2.10
2023-02-06T01:10:51.349Z,-2.10
2023-02-06T01:13:18.524Z,-2.10
2023-02-06T01:15:45.597Z,-2.00
2023-02-06T01:18:12.755Z,-2.00
2023-02-06T01:20:40.874Z,-1.90
2023-02-06T01:23:08.212Z,-1.90
2023-02-06T01:25:35.392Z,-2.00
2023-02-06T01:28:02.646Z,-2.00
2023-02-06T01:30:29.958Z,-2.00
2023-02-06T01:32:57.025Z,-2.10
2023-02-06T01:35:24.024Z,-2.10
2023-02-06T01:37:51.050Z,-2.10
2023-02-06T01:40:18.276Z,-2.10
2023-02-06T01:42:45.516Z,-2.10
2023-02-06T01:45:35.371Z,-2.00
2023-02-06T01:48:08.183Z,-2.00
2023-02-06T01:50:36.787Z,-2.10
2023-02-06T01:53:06.638Z,-2.00
2023-02-06T01:55:37.165Z,-2.10
2023-02-06T01:58:05.501Z,-2.00
2023-02-06T02:00:33.150Z,-2.10
2023-02-06T02:03:01.349Z,-2.10
2023-02-06T02:05:28.441Z,-2.10
2023-02-06T02:08:04.725Z,-2.10
2023-02-06T02:10:32.289Z,-2.20
2023-02-06T02:12:59.421Z,-2.20
2023-02-06T02:15:39.764Z,-2.30
2023-02-06T02:18:13.819Z,-2.20
2023-02-06T02:21:15.197Z,-2.20
2023-02-06T02:24:00.548Z,-2.20
2023-02-06T02:26:51.563Z,-2.20
2023-02-06T02:29:52.470Z,-2.30
2023-02-06T02:32:45.382Z,-2.30
2023-02-06T02:35:21.059Z,-2.30
2023-02-06T02:37:53.193Z,-2.30
2023-02-06T02:40:45.006Z,-2.30
2023-02-06T02:43:38.166Z,-2.30
2023-02-06T02:46:22.732Z,-2.30
2023-02-06T02:48:53.465Z,-2.30
2023-02-06T02:51:20.894Z,-2.40
2023-02-06T02:53:47.916Z,-2.30
2023-02-06T02:56:24.128Z,-2.40
2023-02-06T02:58:59.079Z,-2.40
2023-02-06T03:01:34.136Z,-2.40
2023-02-06T03:04:08.938Z,-2.40
2023-02-06T03:07:14.572Z,-2.50
2023-02-06T03:09:45.972Z,-2.50
2023-02-06T03:12:36.980Z,-2.50
2023-02-06T03:15:33.085Z,-2.60
2023-02-06T03:18:31.876Z,-2.50
2023-02-06T03:21:01.880Z,-2.50
2023-02-06T03:23:33.372Z,-2.50
2023-02-06T03:26:06.012Z,-2.50
2023-02-06T03:28:36.610Z,-2.50
2023-02-06T03:31:10.571Z,-2.60
2023-02-06T03:33:45.470Z,-2.60
2023-02-06T03:36:17.216Z,-2.50
2023-02-06T03:38:54.073Z,-2.50
2023-02-06T03:41:26.096Z,-2.60
2023-02-06T03:43:57.678Z,-2.60
2023-02-06T03:46:27.710Z,-2.60
2023-02-06T03:49:00.107Z,-2.60
2023-02-06T03:52:10.762Z,-2.60
2023-02-06T03:54:42.572Z,-2.60
2023-02-06T03:57:13.198Z,-2.60
2023-02-06T03:59:41.317Z,-2.60
2023-02-06T04:02:09.191Z,-2.60
2023-02-06T04:04:38.747Z,-2.50
2023-02-06T04:07:25.570Z,-2.50
2023-02-06T04:09:53.527Z,-2.60
2023-02-06T04:12:21.822Z,-2.60
2023-02-06T04:14:49.679Z,-2.60
2023-02-06T04:17:38.508Z,-2.60
2023-02-06T04:20:07.626Z,-2.50
2023-02-06T04:22:35.055Z,-2.60
2023-02-06T04:25:02.133Z,-2.70
2023-02-06T04:27:29.185Z,-2.80
2023-02-06T04:29:56.287Z,-2.80
2023-02-06T04:32:23.318Z,-2.80
2023-02-06T04:34:50.490Z,-2.80
2023-02-06T04:37:17.573Z,-2.80
2023-02-06T04:39:48.104Z,-2.80
2023-02-06T04:42:15.165Z,-2.80
2023-02-06T04:44:42.194Z,-2.80
2023-02-06T04:47:09.875Z,-2.70
2023-02-06T04:49:36.926Z,-2.70
2023-02-06T04:52:04.213Z,-2.70
2023-02-06T04:54:32.688Z,-2.70
2023-02-06T04:57:00.031Z,-2.80
2023-02-06T04:59:27.262Z,-2.80
2023-02-06T05:01:54.189Z,-2.80
2023-02-06T05:04:24.028Z,-2.80
2023-02-06T05:06:51.163Z,-2.90
2023-02-06T05:09:18.162Z,-2.90
2023-02-06T05:11:45.187Z,-2.90
2023-02-06T05:14:12.198Z,-2.90
2023-02-06T05:16:39.519Z,-2.80
2023-02-06T05:19:06.465Z,-2.80
2023-02-06T05:21:33.646Z,-2.80
2023-02-06T05:24:00.647Z,-2.80
2023-02-06T05:26:27.654Z,-2.80
2023-02-06T05:28:54.657Z,-2.80
2023-02-06T05:31:21.791Z,-2.80
2023-02-06T05:33:53.799Z,-2.80
2023-02-06T05:36:21.991Z,-2.80
2023-02-06T05:38:50.938Z,-2.80
2023-02-06T05:41:18.643Z,-2.80
2023-02-06T05:43:45.897Z,-2.70
2023-02-06T05:46:13.532Z,-2.80
2023-02-06T05:48:40.895Z,-2.80
2023-02-06T05:51:08.484Z,-2.80
2023-02-06T05:53:35.549Z,-2.70
2023-02-06T05:56:03.537Z,-2.80
2023-02-06T05:58:30.973Z,-2.90
2023-02-06T06:00:58.547Z,-2.90
2023-02-06T06:03:25.822Z,-2.80
2023-02-06T06:05:56.355Z,-2.90
2023-02-06T06:08:23.605Z,-2.90
2023-02-06T06:10:52.422Z,-2.90
2023-02-06T06:13:19.657Z,-3.00
2023-02-06T06:15:50.153Z,-3.00
2023-02-06T06:18:17.403Z,-3.00
2023-02-06T06:20:44.425Z,-3.00
2023-02-06T06:23:11.481Z,-3.00
2023-02-06T06:25:38.827Z,-3.00
2023-02-06T06:28:06.492Z,-3.00
2023-02-06T06:30:35.622Z,-2.90
2023-02-06T06:33:02.774Z,-3.00
2023-02-06T06:35:29.788Z,-3.00
2023-02-06T06:37:57.478Z,-3.00
2023-02-06T06:40:27.706Z,-3.00
2023-02-06T06:42:58.979Z,-2.90
2023-02-06T06:45:26.101Z,-2.90
2023-02-06T06:47:53.203Z,-2.90
2023-02-06T06:50:20.418Z,-2.90
2023-02-06T06:52:47.662Z,-2.90
2023-02-06T06:55:14.759Z,-2.90
2023-02-06T06:57:41.881Z,-2.90
2023-02-06T07:00:09.720Z,-2.90
2023-02-06T07:02:36.843Z,-2.90
2023-02-06T07:05:05.418Z,-2.80
2023-02-06T07:07:32.650Z,-2.90
2023-02-06T07:10:00.070Z,-2.80
2023-02-06T07:12:28.107Z,-2.80
2023-02-06T07:14:55.277Z,-2.70
2023-02-06T07:17:22.354Z,-2.70
2023-02-06T07:19:51.723Z,-2.80
2023-02-06T07:22:20.605Z,-2.80
2023-02-06T07:24:48.626Z,-2.90
2023-02-06T07:27:15.825Z,-2.80
2023-02-06T07:29:42.894Z,-2.80
2023-02-06T07:32:10.227Z,-2.70
2023-02-06T07:34:40.877Z,-2.70
2023-02-06T07:37:08.042Z,-2.70
2023-02-06T07:39:35.458Z,-2.70
2023-02-06T07:42:02.774Z,-2.70
2023-02-06T07:44:29.868Z,-2.70
2023-02-06T07:46:57.846Z,-2.70
2023-02-06T07:49:25.442Z,-2.70
2023-02-06T07:51:52.740Z,-2.70
2023-02-06T07:54:20.882Z,-2.60
2023-02-06T07:56:48.399Z,-2.60
2023-02-06T07:59:23.090Z,-2.50
2023-02-06T08:01:50.169Z,-2.60
2023-02-06T08:04:17.370Z,-2.60
2023-02-06T08:06:44.655Z,-2.60
2023-02-06T08:09:14.831Z,-2.60
2023-02-06T08:11:42.255Z,-2.50
2023-02-06T08:14:11.148Z,-2.50
2023-02-06T08:16:39.589Z,-2.40
2023-02-06T08:19:11.120Z,-2.00
2023-02-06T08:21:39.059Z,-1.90
2023-02-06T08:24:06.484Z,-2.00
2023-02-06T08:26:33.924Z,-1.90
2023-02-06T08:29:05.423Z,-1.80
2023-02-06T08:31:36.002Z,-1.70
2023-02-06T08:34:05.412Z,-1.60
2023-02-06T08:36:33.643Z,-1.60
2023-02-06T08:39:02.766Z,-1.50
2023-02-06T08:41:32.895Z,-1.60
2023-02-06T08:44:02.302Z,-1.50
2023-02-06T08:46:32.879Z,-1.40
2023-02-06T08:49:02.516Z,-1.40
2023-02-06T08:51:29.703Z,-1.70
2023-02-06T08:54:01.648Z,-1.60
2023-02-06T08:56:29.933Z,-1.80
2023-02-06T08:59:02.159Z,-1.90
2023-02-06T09:01:31.623Z,-1.90
2023-02-06T09:04:01.638Z,-1.80
2023-02-06T09:06:29.578Z,-1.50
2023-02-06T09:08:57.785Z,-1.30
2023-02-06T09:11:26.915Z,-1.30
2023-02-06T09:13:59.359Z,-1.20
2023-02-06T09:16:28.458Z,-1.30
2023-02-06T09:19:01.504Z,-1.40
2023-02-06T09:21:33.640Z,-1.30
2023-02-06T09:24:06.872Z,-1.20
2023-02-06T09:26:53.505Z,-0.90
2023-02-06T09:29:24.462Z,-1.10
2023-02-06T09:31:51.560Z,-1.20
2023-02-06T09:34:18.645Z,-1.10
2023-02-06T09:36:46.015Z,-1.00
2023-02-06T09:39:13.146Z,-0.60
2023-02-06T09:41:49.172Z,-0.40
2023-02-06T09:44:33.996Z,-0.70
2023-02-06T09:47:15.969Z,-0.90
2023-02-06T09:49:48.172Z,-0.90
2023-02-06T09:52:27.077Z,-1.00
2023-02-06T09:55:03.430Z,-0.90
2023-02-06T09:57:50.651Z,-0.90
2023-02-06T10:00:39.035Z,-0.80
2023-02-06T10:03:24.289Z,-0.40
2023-02-06T10:06:14.815Z,-0.60
2023-02-06T10:08:50.976Z,-0.60
2023-02-06T10:11:48.470Z,-0.60
2023-02-06T10:14:22.572Z,-0.60
2023-02-06T10:17:01.248Z,-0.50
2023-02-06T10:19:44.249Z,-0.50
2023-02-06T10:22:50.331Z,-0.50
2023-02-06T10:25:58.679Z,-0.50
2023-02-06T10:28:28.412Z,-0.50
2023-02-06T10:31:17.105Z,-0.40
2023-02-06T10:34:21.583Z,-0.40
2023-02-06T10:36:51.318Z,-0.40
2023-02-06T10:39:51.104Z,-0.30
2023-02-06T10:42:31.984Z,-0.20
2023-02-06T10:45:19.557Z,-0.20
2023-02-06T10:48:19.650Z,-0.20
2023-02-06T10:50:56.790Z,-0.10
2023-02-06T10:53:37.016Z,-0.10
2023-02-06T10:56:10.195Z,-0.10
2023-02-06T10:58:47.528Z,-0.10
2023-02-06T11:01:25.722Z,-0.10
2023-02-06T11:04:06.041Z,-0.10
2023-02-06T11:06:33.959Z,0.00
2023-02-06T11:09:01.432Z,0.00
2023-02-06T11:11:30.978Z,0.00
2023-02-06T11:14:08.419Z,0.00
2023-02-06T11:16:37.778Z,-0.10
2023-02-06T11:19:38.925Z,-0.10
2023-02-06T11:22:15.860Z,-0.10
2023-02-06T11:25:04.996Z,-0.20
2023-02-06T11:27:34.979Z,-0.20
2023-02-06T11:30:11.545Z,-0.20
2023-02-06T11:32:55.737Z,-0.10
2023-02-06T11:35:40.573Z,0.10
2023-02-06T11:38:22.161Z,0.40
2023-02-06T11:41:01.218Z,0.40
2023-02-06T11:43:31.441Z,0.50
2023-02-06T11:46:18.194Z,0.40
2023-02-06T11:48:46.701Z,0.30
2023-02-06T11:51:16.845Z,0.30
2023-02-06T11:53:59.776Z,0.20
2023-02-06T11:56:28.099Z,0.10
2023-02-06T11:59:15.853Z,0.10
2023-02-06T12:01:46.021Z,0.10
2023-02-06T12:04:32.097Z,0.10
2023-02-06T12:07:05.626Z,0.20
2023-02-06T12:09:32.927Z,0.20
2023-02-06T12:12:10.244Z,0.20
2023-02-06T12:15:18.208Z,0.30
2023-02-06T12:17:57.837Z,0.30
2023-02-06T12:20:31.288Z,0.40
2023-02-06T12:23:06.048Z,0.40
2023-02-06T12:25:36.472Z,0.50
2023-02-06T12:28:18.871Z,0.60
2023-02-06T12:31:01.123Z,0.60
2023-02-06T12:33:36.574Z,0.70
2023-02-06T12:36:31.272Z,0.90
2023-02-06T12:39:01.739Z,0.90
2023-02-06T12:41:28.779Z,0.90
2023-02-06T12:44:19.862Z,0.90
2023-02-06T12:46:53.414Z,0.90
2023-02-06T12:49:35.764Z,0.90
2023-02-06T12:52:13.364Z,0.90
2023-02-06T12:54:47.438Z,1.00
2023-02-06T12:57:25.354Z,1.00
2023-02-06T13:00:17.251Z,1.00
2023-02-06T13:02:59.596Z,0.90
2023-02-06T13:05:43.708Z,0.90
2023-02-06T13:08:21.382Z,1.00
2023-02-06T13:11:02.218Z,0.90
2023-02-06T13:13:36.896Z,0.80
2023-02-06T13:16:06.222Z,0.80
2023-02-06T13:18:50.753Z,0.80
2023-02-06T13:21:20.481Z,0.80
2023-02-06T13:24:18.337Z,0.80
2023-02-06T13:26:51.677Z,0.70
2023-02-06T13:29:43.791Z,0.70
2023-02-06T13:32:15.192Z,0.70
2023-02-06T13:34:45.483Z,0.70
2023-02-06T13:37:31.326Z,0.70
2023-02-06T13:40:23.561Z,0.70
2023-02-06T13:42:50.844Z,0.70
2023-02-06T13:45:24.488Z,0.70
2023-02-06T13:48:15.864Z,0.60
2023-02-06T13:51:07.648Z,0.70
2023-02-06T13:53:56.216Z,0.70
2023-02-06T13:56:52.032Z,0.70
2023-02-06T13:59:34.319Z,0.70
2023-02-06T14:02:30.887Z,0.70
2023-02-06T14:05:02.288Z,0.70
2023-02-06T14:07:51.034Z,0.70
2023-02-06T14:10:47.377Z,0.70
2023-02-06T14:13:46.902Z,0.60
2023-02-06T14:16:22.314Z,0.60
2023-02-06T14:19:18.230Z,0.60
2023-02-06T14:21:57.375Z,0.70
2023-02-06T14:24:41.292Z,0.60
2023-02-06T14:27:29.559Z,0.70
2023-02-06T14:30:11.483Z,0.70
2023-02-06T14:32:47.982Z,0.70
2023-02-06T14:35:36.053Z,0.70
2023-02-06T14:38:38.383Z,0.60
2023-02-06T14:41:06.494Z,0.60
2023-02-06T14:43:44.556Z,0.70
2023-02-06T14:46:17.234Z,0.70
2023-02-06T14:48:53.943Z,0.70
2023-02-06T14:51:34.345Z,0.60
2023-02-06T14:54:05.164Z,0.60
2023-02-06T14:56:40.885Z,0.60
2023-02-06T14:59:18.803Z,0.80
2023-02-06T15:01:49.352Z,0.80
2023-02-06T15:04:23.089Z,0.70
2023-02-06T15:07:02.174Z,0.60
2023-02-06T15:09:31.993Z,0.50
2023-02-06T15:12:08.591Z,0.40
2023-02-06T15:14:35.908Z,0.50
2023-02-06T15:17:03.794Z,0.40
2023-02-06T15:19:33.258Z,0.40
2023-02-06T15:22:05.955Z,0.40
2023-02-06T15:24:42.065Z,0.40
2023-02-06T15:27:23.917Z,0.40
2023-02-06T15:29:52.151Z,0.40
2023-02-06T15:32:33.581Z,0.40
2023-02-06T15:35:02.259Z,0.30
2023-02-06T15:37:35.508Z,0.30
2023-02-06T15:40:32.956Z,0.30
2023-02-06T15:43:01.512Z,0.30
2023-02-06T15:45:34.366Z,0.20
2023-02-06T15:48:11.624Z,0.20
2023-02-06T15:50:39.186Z,0.20
2023-02-06T15:53:29.832Z,0.20
2023-02-06T15:55:59.786Z,0.20
2023-02-06T15:58:27.366Z,0.20
2023-02-06T16:01:21.721Z,0.20
2023-02-06T16:20:17.443Z,0.00
2023-02-06T16:27:03.459Z,-0.10
2023-02-06T16:33:07.281Z,0.10
2023-02-06T16:59:23.482Z,-0.20
2023-02-06T17:05:55.579Z,-0.10
2023-02-06T17:08:26.018Z,-0.10
2023-02-06T17:10:56.116Z,-0.10
2023-02-06T17:13:26.714Z,-0.10
2023-02-06T17:15:54.214Z,-0.10
2023-02-06T17:18:22.802Z,-0.20
2023-02-06T17:20:53.117Z,-0.20
2023-02-06T17:23:20.760Z,-0.30
2023-02-06T17:25:47.988Z,-0.30
2023-02-06T17:28:18.105Z,-0.30
2023-02-06T17:30:46.728Z,-0.30
2023-02-06T17:33:14.405Z,-0.30
2023-02-06T17:35:42.433Z,-0.30
2023-02-06T17:38:10.555Z,-0.30
2023-02-06T17:40:40.523Z,-0.30
2023-02-06T17:43:08.005Z,-0.30
2023-02-06T17:45:40.693Z,-0.30
2023-02-06T17:48:08.941Z,-0.40
2023-02-06T17:50:44.349Z,-0.40
2023-02-06T17:53:15.235Z,-0.40
2023-02-06T17:55:45.585Z,-0.40
2023-02-06T17:58:12.851Z,-0.40
2023-02-06T18:00:40.929Z,-0.50
2023-02-06T18:03:08.541Z,-0.50
2023-02-06T18:05:35.784Z,-0.50
2023-02-06T18:08:03.202Z,-0.50
2023-02-06T18:10:30.315Z,-0.50
2023-02-06T18:12:57.355Z,-0.50
2023-02-06T18:15:24.713Z,-0.60
2023-02-06T18:17:55.014Z,-0.60
2023-02-06T18:20:22.394Z,-0.60
2023-02-06T18:22:50.034Z,-0.60
2023-02-06T18:25:17.203Z,-0.50
2023-02-06T18:27:46.149Z,-0.60
2023-02-06T18:30:14.764Z,-0.60
2023-02-06T18:32:42.869Z,-0.60
2023-02-06T18:35:10.870Z,-0.60
2023-02-06T18:37:38.714Z,-0.60
2023-02-06T18:40:06.493Z,-0.60
2023-02-06T18:42:51.804Z,-0.60
2023-02-06T18:45:21.631Z,-0.60
2023-02-06T18:47:52.690Z,-0.60
2023-02-06T18:50:22.182Z,-0.60
2023-02-06T18:52:52.054Z,-0.60
2023-02-06T18:55:28.371Z,-0.60
2023-02-06T18:57:55.870Z,-0.60
2023-02-06T19:00:24.293Z,-0.60
2023-02-06T19:02:51.485Z,-0.60
2023-02-06T19:05:19.623Z,-0.60
2023-02-06T19:07:53.839Z,-0.60
2023-02-06T19:10:22.525Z,-0.50
2023-02-06T19:12:52.345Z,-0.50
2023-02-06T19:15:19.797Z,-0.50
2023-02-06T19:17:47.603Z,-0.50
2023-02-06T19:20:14.857Z,-0.40
2023-02-06T19:22:42.603Z,-0.50
2023-02-06T19:25:14.252Z,-0.50
2023-02-06T19:27:42.531Z,-0.60
2023-02-06T19:30:10.264Z,-0.60
2023-02-06T19:32:38.264Z,-0.60
2023-02-06T19:35:10.433Z,-0.60
2023-02-06T19:37:38.643Z,-0.60
2023-02-06T19:40:08.816Z,-0.60
2023-02-06T19:48:18.914Z,-0.50
2023-02-06T19:50:54.233Z,-0.60
2023-02-06T19:53:21.362Z,-0.60
2023-02-06T19:55:49.471Z,-0.60
2023-02-06T20:01:38.756Z,-0.50
2023-02-06T20:04:19.448Z,-0.50
2023-02-06T20:07:35.441Z,-0.50
2023-02-06T20:10:36.016Z,-0.50
2023-02-06T20:13:25.090Z,-0.50
2023-02-06T20:16:11.848Z,-0.40
2023-02-06T20:18:50.710Z,-0.40
2023-02-06T20:24:25.101Z,-0.40
2023-02-06T20:27:00.873Z,-0.40
2023-02-06T20:29:34.450Z,-0.40
2023-02-06T20:32:14.106Z,-0.40
2023-02-06T20:38:09.002Z,-0.40
2023-02-06T20:41:12.850Z,-0.40
2023-02-06T20:43:47.900Z,-0.40
2023-02-06T20:46:31.656Z,-0.40
2023-02-06T20:49:37.259Z,-0.40
2023-02-06T20:58:42.485Z,-0.40
2023-02-06T21:01:14.165Z,-0.50
2023-02-06T21:03:42.528Z,-0.50
2023-02-06T21:06:09.975Z,-0.50
2023-02-06T21:08:37.321Z,-0.50
2023-02-06T21:11:08.138Z,-0.50
2023-02-06T21:13:42.709Z,-0.60
2023-02-06T21:16:13.573Z,-0.60
2023-02-06T21:18:43.328Z,-0.50
2023-02-06T21:21:13.649Z,-0.60
2023-02-06T21:23:42.804Z,-0.60
2023-02-06T21:26:12.994Z,-0.70
2023-02-06T21:28:41.249Z,-0.70
2023-02-06T21:31:14.303Z,-0.60
2023-02-06T21:33:41.553Z,-0.60
2023-02-06T21:36:09.349Z,-0.60
2023-02-06T21:38:37.085Z,-0.70
2023-02-06T21:41:16.004Z,-0.60
2023-02-06T21:43:43.638Z,-0.60
2023-02-06T21:46:11.503Z,-0.70
2023-02-06T21:48:39.397Z,-0.70
2023-02-06T21:51:10.735Z,-0.60
2023-02-06T21:53:38.126Z,-0.70
2023-02-06T21:56:08.000Z,-0.70
2023-02-06T21:58:36.841Z,-0.70
2023-02-06T22:01:08.774Z,-0.70
2023-02-06T22:03:36.304Z,-0.60
2023-02-06T22:06:20.159Z,-0.60
2023-02-06T22:08:57.270Z,-0.60
2023-02-06T22:11:27.116Z,-0.50
2023-02-06T22:14:06.017Z,-0.60
2023-02-06T22:16:35.970Z,-0.50
2023-02-06T22:19:03.745Z,-0.40
2023-02-06T22:21:31.981Z,-0.40
2023-02-06T22:24:02.958Z,-0.30
2023-02-06T22:26:36.853Z,-0.30
2023-02-06T22:29:08.576Z,-0.30
2023-02-06T22:31:38.903Z,-0.30
2023-02-06T22:34:15.119Z,-0.30
2023-02-06T22:36:42.929Z,-0.20
2023-02-06T22:39:12.847Z,-0.20
2023-02-06T22:41:42.858Z,-0.20
2023-02-06T22:44:13.100Z,-0.20
2023-02-06T22:46:40.792Z,-0.20
2023-02-06T22:49:11.266Z,-0.20
2023-02-06T22:51:42.978Z,-0.10
2023-02-06T22:54:18.198Z,-0.10
2023-02-06T22:56:50.639Z,-0.10
2023-02-06T22:59:24.254Z,-0.10
2023-02-06T23:01:58.026Z,-0.20
2023-02-06T23:04:34.925Z,-0.20
2023-02-06T23:07:06.908Z,-0.20
2023-02-06T23:09:37.312Z,-0.20
2023-02-06T23:12:06.409Z,-0.20
2023-02-06T23:15:36.042Z,-0.20
2023-02-06T23:18:04.000Z,-0.30
2023-02-06T23:20:30.973Z,-0.30
2023-02-06T23:23:00.625Z,-0.30
2023-02-06T23:25:27.721Z,-0.40
2023-02-06T23:27:55.408Z,-0.40
2023-02-06T23:30:22.468Z,-0.40
2023-02-06T23:32:49.636Z,-0.40
2023-02-06T23:35:20.101Z,-0.40
2023-02-06T23:37:48.294Z,-0.40
2023-02-06T23:40:15.451Z,-0.40
2023-02-06T23:42:42.686Z,-0.40
2023-02-06T23:45:10.803Z,-0.30
2023-02-06T23:47:37.864Z,-0.40
2023-02-06T23:50:06.265Z,-0.40
2023-02-06T23:52:33.329Z,-0.30
2023-02-06T23:55:00.886Z,-0.40
2023-02-06T23:57:28.243Z,-0.30
2023-02-06T23:59:55.403Z,-0.30
